Time;durP1;ratioP1;P1;durP2;ratioP2;P2;SDS_P1;SDS_P2;PMS_P1;PMS_P2;Temp;Humidity;BMP_temperature;BMP_pressure;BME280_temperature;BME280_humidity;BME280_pressure;Samples;Min_cycle;Max_cycle;Signal;HPM_P1;HPM_P2
2022/07/26 00:01:52;;;;;;;4.22;3.50;;;;;;;20.63;57.60;97928.95;1665262;86;27648;-61
2022/07/26 00:04:19;;;;;;;6.78;4.12;;;;;;;20.61;57.72;97931.36;1665250;84;25775;-62
2022/07/26 00:06:45;;;;;;;5.60;4.30;;;;;;;20.57;57.74;97929.97;1665059;86;25476;-61
2022/07/26 00:09:11;;;;;;;4.62;3.83;;;;;;;20.58;57.73;97927.98;1665396;86;25765;-60
2022/07/26 00:11:38;;;;;;;4.55;3.75;;;;;;;20.56;58.14;97929.78;1665370;86;25609;-62
2022/07/26 00:14:07;;;;;;;6.47;4.35;;;;;;;20.49;58.50;97919.44;1665424;86;27224;-61
2022/07/26 00:16:35;;;;;;;5.95;4.67;;;;;;;20.45;57.98;97922.83;1665340;86;25628;-62
2022/07/26 00:19:03;;;;;;;6.17;4.37;;;;;;;20.44;58.36;97924.80;1665049;86;25407;-60
2022/07/26 00:21:29;;;;;;;9.33;4.62;;;;;;;20.44;58.35;97924.03;1665567;86;25863;-61
2022/07/26 00:23:56;;;;;;;10.03;4.47;;;;;;;20.38;58.47;97920.06;1665288;86;25458;-62
2022/07/26 00:26:22;;;;;;;7.55;4.50;;;;;;;20.37;58.89;97917.06;1665347;86;27454;-62
2022/07/26 00:28:48;;;;;;;6.22;4.22;;;;;;;20.36;58.50;97916.88;1665460;86;25422;-53
2022/07/26 00:31:15;;;;;;;5.60;4.42;;;;;;;20.34;59.26;97918.66;1665768;86;25655;-52
2022/07/26 00:33:41;;;;;;;6.62;4.60;;;;;;;20.34;58.55;97915.08;1665415;86;25438;-55
2022/07/26 00:36:08;;;;;;;6.90;4.40;;;;;;;20.35;58.84;97911.12;1665344;86;25507;-53
2022/07/26 00:38:34;;;;;;;7.05;4.55;;;;;;;20.28;59.44;97904.36;1665171;86;27465;-52
2022/07/26 00:41:01;;;;;;;6.67;4.28;;;;;;;20.20;59.64;97906.16;1665094;86;25434;-52
2022/07/26 00:43:27;;;;;;;6.28;4.40;;;;;;;20.08;60.46;97903.95;1665150;86;25459;-55
2022/07/26 00:45:54;;;;;;;7.95;4.70;;;;;;;20.02;60.29;97899.39;1665557;86;25643;-53
2022/07/26 00:48:20;;;;;;;5.67;4.37;;;;;;;20.03;59.82;97891.83;1665330;86;25651;-53
2022/07/26 00:50:46;;;;;;;5.25;4.67;;;;;;;20.04;60.25;97887.88;1665564;86;27632;-51
2022/07/26 00:53:13;;;;;;;8.18;4.70;;;;;;;20.00;60.31;97887.83;1665120;86;25491;-49
2022/07/26 00:55:39;;;;;;;7.10;4.53;;;;;;;19.97;60.78;97879.51;1665438;86;25664;-49
2022/07/26 00:58:05;;;;;;;7.35;4.97;;;;;;;19.95;60.49;97879.91;1665483;86;25750;-49
2022/07/26 01:00:32;;;;;;;8.35;4.95;;;;;;;19.90;60.99;97878.90;1665175;86;25700;-48
2022/07/26 01:02:59;;;;;;;6.05;4.60;;;;;;;19.86;60.90;97879.50;1665269;86;27463;-52
2022/07/26 01:05:26;;;;;;;6.60;4.62;;;;;;;19.85;61.58;97871.74;1675773;84;25664;-60
2022/07/26 01:07:54;;;;;;;7.00;4.55;;;;;;;19.84;61.31;97869.36;1689360;84;25636;-61
2022/07/26 01:10:20;;;;;;;8.73;4.78;;;;;;;19.83;61.30;97866.39;1689347;84;25751;-61
2022/07/26 01:12:47;;;;;;;6.67;5.10;;;;;;;19.81;61.72;97862.61;1689581;84;25727;-52
2022/07/26 01:15:15;;;;;;;5.60;4.50;;;;;;;19.73;61.80;97871.54;1689879;84;27450;-53
2022/07/26 01:17:42;;;;;;;6.45;4.65;;;;;;;19.68;62.05;97867.75;1689721;84;25662;-52
2022/07/26 01:20:12;;;;;;;7.12;4.53;;;;;;;19.69;62.06;97867.35;1689783;84;25458;-53
2022/07/26 01:22:38;;;;;;;7.00;5.28;;;;;;;19.69;62.52;97856.23;1689749;84;25755;-62
2022/07/26 01:25:07;;;;;;;7.17;5.05;;;;;;;19.66;63.20;97857.02;1689479;84;25692;-60
2022/07/26 01:27:38;;;;;;;5.80;4.65;;;;;;;19.65;62.48;97856.83;1689821;84;27481;-62
2022/07/26 01:30:04;;;;;;;7.28;5.10;;;;;;;19.63;62.53;97856.42;1689243;83;25635;-58
2022/07/26 01:32:30;;;;;;;8.43;4.92;;;;;;;19.61;62.54;97851.87;1689380;84;25637;-61
2022/07/26 01:34:56;;;;;;;5.62;4.85;;;;;;;19.59;62.75;97850.08;1689953;84;25819;-61
2022/07/26 01:37:22;;;;;;;5.72;5.12;;;;;;;19.58;62.66;97858.22;1689795;84;25443;-62
2022/07/26 01:39:48;;;;;;;6.12;5.03;;;;;;;19.55;62.41;97857.00;1689403;84;27419;-62
2022/07/26 01:42:14;;;;;;;8.28;5.25;;;;;;;19.54;62.51;97853.23;1689416;84;26206;-62
2022/07/26 01:44:40;;;;;;;6.08;4.95;;;;;;;19.53;62.96;97848.28;1689491;84;25480;-62
2022/07/26 01:47:06;;;;;;;8.70;4.97;;;;;;;19.52;62.72;97850.84;1685048;84;26605;-60
2022/07/26 01:49:32;;;;;;;8.55;5.22;;;;;;;19.48;63.11;97846.47;1689706;84;25599;-61
2022/07/26 01:51:59;;;;;;;8.10;5.00;;;;;;;19.47;63.11;97841.52;1689393;84;27404;-59
2022/07/26 01:54:25;;;;;;;7.00;5.08;;;;;;;19.48;62.72;97838.94;1689628;84;25838;-62
2022/07/26 01:56:51;;;;;;;8.13;5.40;;;;;;;19.52;62.88;97837.56;1689886;84;25723;-49
2022/07/26 01:59:17;;;;;;;6.25;4.87;;;;;;;19.51;62.78;97839.54;1689902;84;25752;-51
2022/07/26 02:01:43;;;;;;;6.53;5.08;;;;;;;19.52;63.33;97836.17;1689854;84;25407;-49
2022/07/26 02:04:57;;;;;;;6.37;5.25;;;;;;;19.53;63.03;97836.37;1689551;84;28283;-51
2022/07/26 02:06:37;;;;;;;8.45;5.10;;;;;;;19.50;63.23;97828.82;1687456;84;25861;-49
2022/07/26 02:09:04;;;;;;;7.20;4.97;;;;;;;19.52;62.89;97830.00;1689913;84;25467;-50
2022/07/26 02:11:33;;;;;;;6.95;5.15;;;;;;;19.46;63.47;97826.05;1689602;84;25701;-49
2022/07/26 02:14:04;;;;;;;7.00;5.45;;;;;;;19.38;63.89;97822.47;1689663;84;25690;-51
2022/07/26 02:16:41;;;;;;;6.40;5.70;;;;;;;19.28;64.12;97824.02;1689604;84;28039;-49
2022/07/26 02:19:12;;;;;;;8.13;5.15;;;;;;;19.22;64.57;97823.39;1689406;84;25700;-51
2022/07/26 02:21:41;;;;;;;7.00;5.10;;;;;;;19.18;64.50;97812.30;1689384;84;25735;-49
2022/07/26 02:24:12;;;;;;;6.65;5.33;;;;;;;19.14;64.79;97814.28;1689731;84;26519;-51
2022/07/26 02:26:37;;;;;;;6.53;5.37;;;;;;;19.12;64.52;97813.28;1689871;84;25679;-60
2022/07/26 02:29:03;;;;;;;5.72;5.00;;;;;;;19.11;64.41;97809.51;1689645;84;27319;-59
2022/07/26 02:31:30;;;;;;;7.65;5.42;;;;;;;19.15;64.41;97808.33;1689613;84;25584;-58
2022/07/26 02:33:56;;;;;;;7.05;5.35;;;;;;;19.20;64.24;97804.96;1689746;84;25489;-59
2022/07/26 02:36:22;;;;;;;6.53;5.62;;;;;;;19.28;64.20;97801.80;1689632;84;26468;-62
2022/07/26 02:38:48;;;;;;;8.25;5.25;;;;;;;19.33;64.16;97799.81;1689577;84;25609;-58
2022/07/26 02:41:17;;;;;;;6.97;4.65;;;;;;;19.34;64.20;97797.26;1689727;84;27507;-54
2022/07/26 02:43:47;;;;;;;7.63;5.23;;;;;;;19.29;64.53;97799.83;1689850;84;25858;-55
2022/07/26 02:46:17;;;;;;;7.55;5.40;;;;;;;19.29;64.43;97795.05;1689824;84;25676;-54
2022/07/26 02:48:46;;;;;;;7.55;5.62;;;;;;;19.32;64.26;97803.20;1689764;84;25693;-53
2022/07/26 02:51:15;;;;;;;6.83;5.53;;;;;;;19.31;64.70;97798.81;1689657;84;25437;-54
2022/07/26 02:53:44;;;;;;;7.17;5.40;;;;;;;19.28;64.48;97794.85;1689825;84;27456;-53
2022/07/26 02:56:16;;;;;;;7.17;5.53;;;;;;;19.27;64.63;97806.36;1689500;84;25513;-62
2022/07/26 02:58:43;;;;;;;6.50;5.30;;;;;;;19.27;64.25;97806.36;1689464;84;26551;-62
2022/07/26 03:01:09;;;;;;;8.23;5.65;;;;;;;19.31;64.25;97801.59;1689616;84;25744;-62
2022/07/26 03:03:35;;;;;;;7.85;5.80;;;;;;;19.33;64.26;97806.17;1689411;84;25659;-60
2022/07/26 03:06:01;;;;;;;6.45;5.58;;;;;;;19.35;64.16;97797.45;1689548;84;27423;-60
2022/07/26 03:08:27;;;;;;;9.03;5.70;;;;;;;19.40;64.40;97793.67;1689355;84;25956;-61
2022/07/26 03:10:53;;;;;;;7.25;5.80;;;;;;;19.45;64.22;97796.66;1689633;84;25614;-61
2022/07/26 03:13:19;;;;;;;8.20;5.80;;;;;;;19.47;64.12;97798.46;1689695;84;25726;-62
2022/07/26 03:15:45;;;;;;;7.33;5.70;;;;;;;19.53;63.84;97799.66;1689714;84;25451;-61
2022/07/26 03:18:11;;;;;;;8.68;5.45;;;;;;;19.64;63.70;97805.81;1689613;84;27576;-62
2022/07/26 03:20:41;;;;;;;8.45;5.60;;;;;;;19.66;63.80;97799.28;1689268;84;25473;-59
2022/07/26 03:23:13;;;;;;;8.95;5.37;;;;;;;19.64;63.85;97792.72;1689627;84;25783;-49
2022/07/26 03:25:47;;;;;;;8.60;5.58;;;;;;;19.61;64.08;97789.34;1689511;84;25820;-50
2022/07/26 03:28:19;;;;;;;7.75;5.80;;;;;;;19.68;63.90;97785.76;1689389;84;25683;-49
2022/07/26 03:30:49;;;;;;;8.60;5.50;;;;;;;19.75;63.92;97792.70;1685302;84;27557;-52
2022/07/26 03:33:17;;;;;;;8.30;5.70;;;;;;;19.75;63.98;97784.36;1689617;84;25656;-50
2022/07/26 03:35:43;;;;;;;9.93;6.05;;;;;;;19.73;63.90;97777.62;1689430;84;25629;-49
2022/07/26 03:38:09;;;;;;;7.83;6.45;;;;;;;19.73;64.08;97774.25;1689656;84;25711;-50
2022/07/26 03:40:35;;;;;;;9.15;5.83;;;;;;;19.74;64.17;97780.00;1689351;84;25502;-50
2022/07/26 03:43:01;;;;;;;7.87;5.67;;;;;;;19.72;64.12;97769.89;1689677;84;28202;-48
2022/07/26 03:45:28;;;;;;;8.10;5.78;;;;;;;19.75;64.05;97773.86;1689687;84;25437;-49
2022/07/26 03:47:54;;;;;;;8.50;6.15;;;;;;;19.74;64.16;97770.27;1689430;84;25688;-53
2022/07/26 03:50:27;;;;;;;7.65;6.03;;;;;;;19.75;64.03;97778.03;1689851;84;25901;-59
2022/07/26 03:52:58;;;;;;;8.33;6.25;;;;;;;19.72;64.00;97770.48;1689360;84;25631;-58
2022/07/26 03:58:09;;;;;;;9.70;6.60;;;;;;;19.78;64.06;97771.67;1689232;84;25473;-60
2022/07/26 04:00:35;;;;;;;10.03;6.50;;;;;;;19.87;63.94;97774.05;1689737;84;25524;-61
2022/07/26 04:03:01;;;;;;;9.15;6.35;;;;;;;19.92;63.73;97765.31;1689616;84;25741;-58
2022/07/26 04:05:27;;;;;;;10.45;6.70;;;;;;;19.97;63.59;97761.34;1688769;84;25894;-62
2022/07/26 04:07:53;;;;;;;11.63;7.15;;;;;;;20.03;63.52;97763.91;1665134;86;27403;-51
2022/07/26 04:10:21;;;;;;;6.65;5.95;;;;;;;20.12;63.39;97769.08;1665308;86;25637;-51
2022/07/26 04:12:48;;;;;;;10.63;7.10;;;;;;;20.13;63.28;97774.83;1665260;86;25658;-52
2022/07/26 04:15:15;;;;;;;11.38;6.25;;;;;;;20.15;63.25;97771.84;1665384;86;25923;-55
2022/07/26 04:17:42;;;;;;;8.35;6.47;;;;;;;20.13;63.26;97772.05;1665200;86;25652;-52
2022/07/26 04:20:11;;;;;;;12.23;6.47;;;;;;;20.11;63.40;97762.72;1665300;86;27419;-52
2022/07/26 04:22:40;;;;;;;9.18;6.60;;;;;;;20.12;63.43;97767.69;1665352;86;25841;-55
2022/07/26 04:25:11;;;;;;;9.88;6.50;;;;;;;20.20;63.36;97769.25;1665030;86;25609;-52
2022/07/26 04:27:40;;;;;;;9.35;6.10;;;;;;;20.34;63.17;97763.44;1664947;86;26611;-50
2022/07/26 04:30:17;;;;;;;9.08;6.10;;;;;;;20.46;63.01;97764.41;1665354;86;25688;-57
2022/07/26 04:32:49;;;;;;;9.65;6.50;;;;;;;20.63;62.75;97764.14;1665580;86;27453;-59
2022/07/26 04:35:16;;;;;;;7.08;6.05;;;;;;;20.88;62.28;97778.56;1665026;86;25895;-62
2022/07/26 04:37:44;;;;;;;12.33;6.62;;;;;;;21.11;62.12;97782.03;1665066;86;25672;-59
2022/07/26 04:40:18;;;;;;;9.10;5.90;;;;;;;21.31;61.62;97783.72;1665285;86;25721;-61
2022/07/26 04:42:44;;;;;;;10.48;6.00;;;;;;;21.51;62.41;97794.33;1665275;86;25665;-62
2022/07/26 04:45:12;;;;;;;9.98;6.05;;;;;;;21.65;62.30;97799.01;1665398;86;27453;-60
2022/07/26 04:47:43;;;;;;;9.13;6.42;;;;;;;21.81;62.89;97813.83;1665081;86;25420;-61
2022/07/26 04:50:12;;;;;;;10.15;5.83;;;;;;;21.90;62.12;97821.13;1665351;86;25509;-62
2022/07/26 04:52:39;;;;;;;7.37;5.92;;;;;;;21.99;63.13;97834.59;1664996;86;25660;-54
2022/07/26 04:55:07;;;;;;;7.87;6.00;;;;;;;22.03;62.60;97850.72;1665329;86;25679;-55
2022/07/26 04:57:34;;;;;;;6.90;5.87;;;;;;;22.04;62.54;97875.20;1665238;86;27335;-54
2022/07/26 05:00:03;;;;;;;8.30;6.17;;;;;;;21.99;62.65;97898.75;1664934;86;25672;-53
2022/07/26 05:02:29;;;;;;;9.20;6.03;;;;;;;21.99;63.20;97929.44;1665290;86;25689;-53
2022/07/26 05:04:55;;;;;;;9.60;6.33;;;;;;;21.91;62.40;97930.70;1665378;86;26712;-52
2022/07/26 05:07:21;;;;;;;9.33;6.75;;;;;;;21.81;62.45;97901.67;1665203;84;25409;-53
2022/07/26 05:09:47;;;;;;;9.88;6.35;;;;;;;21.85;61.89;97889.91;1665265;86;27467;-54
2022/07/26 05:12:13;;;;;;;11.50;6.87;;;;;;;21.92;60.47;97877.30;1665587;86;25604;-62
2022/07/26 05:14:40;;;;;;;9.13;6.47;;;;;;;22.05;60.33;97883.78;1665411;86;25785;-62
2022/07/26 05:17:07;;;;;;;8.45;5.80;;;;;;;22.20;60.15;97899.80;1665172;86;25792;-62
2022/07/26 05:19:33;;;;;;;13.45;6.92;;;;;;;22.36;59.29;97906.23;1665319;86;25617;-61
2022/07/26 05:21:59;;;;;;;9.38;5.90;;;;;;;22.52;59.27;97902.91;1665273;86;27544;-61
2022/07/26 05:24:25;;;;;;;8.28;6.15;;;;;;;22.68;58.28;97887.60;1665440;86;25716;-63
2022/07/26 05:26:51;;;;;;;6.67;5.67;;;;;;;22.86;57.50;97893.02;1665458;86;25574;-59
2022/07/26 05:29:17;;;;;;;10.20;5.85;;;;;;;23.07;57.27;97905.14;1665501;86;25612;-62
2022/07/26 05:31:43;;;;;;;8.18;5.83;;;;;;;23.20;57.14;97919.34;1665555;86;25670;-62
2022/07/26 05:34:09;;;;;;;9.10;5.85;;;;;;;23.26;56.24;97919.69;1665142;86;27435;-63
2022/07/26 05:36:35;;;;;;;8.25;5.58;;;;;;;23.31;56.17;97922.81;1664981;86;25693;-56
2022/07/26 05:39:02;;;;;;;7.53;5.70;;;;;;;23.35;57.10;97926.17;1665299;86;25582;-54
2022/07/26 05:41:28;;;;;;;8.35;5.75;;;;;;;23.39;56.68;97930.53;1665384;86;25863;-55
2022/07/26 05:43:54;;;;;;;8.35;5.35;;;;;;;23.43;56.87;97929.88;1665162;86;25628;-55
2022/07/26 05:46:20;;;;;;;11.80;6.00;;;;;;;23.48;57.41;97937.00;1665672;86;27388;-57
2022/07/26 05:48:46;;;;;;;7.45;5.80;;;;;;;23.45;58.01;97951.82;1665343;86;25459;-56
2022/07/26 05:51:12;;;;;;;8.00;5.85;;;;;;;23.46;58.22;97959.02;1665380;86;25711;-54
2022/07/26 05:53:39;;;;;;;8.65;5.65;;;;;;;23.47;58.35;97954.20;1665133;86;25790;-56
2022/07/26 05:56:06;;;;;;;10.68;5.45;;;;;;;23.48;58.25;97962.17;1665105;86;25944;-55
2022/07/26 05:58:33;;;;;;;8.55;5.75;;;;;;;23.41;58.82;97972.05;1665492;86;27430;-55
2022/07/26 06:00:59;;;;;;;8.08;5.70;;;;;;;23.35;59.08;97970.89;1665510;86;25468;-55
2022/07/26 06:03:25;;;;;;;8.10;5.78;;;;;;;23.28;59.85;97978.16;1665556;86;25612;-59
2022/07/26 06:05:55;;;;;;;8.28;6.10;;;;;;;23.25;59.58;97993.55;1665114;86;25400;-56
2022/07/26 06:08:25;;;;;;;9.58;6.53;;;;;;;23.19;60.25;98000.21;1665269;84;25707;-62
2022/07/26 06:10:53;;;;;;;8.87;6.20;;;;;;;23.14;60.87;98014.03;1665140;86;27413;-61
2022/07/26 06:13:19;;;;;;;11.05;6.40;;;;;;;23.12;60.70;98016.47;1665070;86;25881;-63
2022/07/26 06:15:46;;;;;;;9.73;7.72;;;;;;;23.09;62.16;98021.48;1665481;86;25717;-58
2022/07/26 06:18:12;;;;;;;9.18;7.65;;;;;;;22.95;63.06;98034.98;1665128;86;25656;-63
2022/07/26 06:20:44;;;;;;;9.68;7.50;;;;;;;22.81;63.52;98036.71;1665626;86;25652;-56
2022/07/26 06:23:11;;;;;;;8.90;8.00;;;;;;;22.78;64.38;98045.91;1665250;86;27522;-54
2022/07/26 06:25:38;;;;;;;11.35;7.97;;;;;;;22.77;64.50;98047.10;1665469;86;25665;-56
2022/07/26 06:28:07;;;;;;;10.05;7.92;;;;;;;22.70;65.89;98068.11;1665482;86;25612;-55
2022/07/26 06:30:35;;;;;;;10.23;8.53;;;;;;;22.61;66.50;98067.78;1665085;86;25803;-54
2022/07/26 06:33:01;;;;;;;12.23;8.45;;;;;;;22.52;66.54;98071.01;1665136;86;25612;-54
2022/07/26 06:35:34;;;;;;;10.18;8.00;;;;;;;22.47;67.94;98067.24;1665403;86;27402;-61
2022/07/26 06:37:57;;;;;;;11.50;8.53;;;;;;;22.43;68.71;98063.09;1664340;86;25894;-63
2022/07/26 06:40:24;;;;;;;12.10;8.63;;;;;;;22.42;68.18;98069.87;1661790;86;26208;-63
2022/07/26 06:42:50;;;;;;;14.18;8.40;;;;;;;22.40;68.19;98059.73;1665090;86;25815;-63
2022/07/26 06:45:17;;;;;;;11.48;8.33;;;;;;;22.34;69.00;98057.17;1665357;86;25713;-58
2022/07/26 06:47:44;;;;;;;10.95;8.38;;;;;;;22.31;69.50;98062.98;1665179;86;27427;-60
2022/07/26 06:50:11;;;;;;;10.13;8.40;;;;;;;22.33;68.74;98081.48;1665261;86;25632;-63
2022/07/26 06:52:38;;;;;;;11.50;7.55;;;;;;;22.31;69.42;98075.55;1665142;86;25624;-62
2022/07/26 06:55:07;;;;;;;10.93;8.25;;;;;;;22.18;69.88;98084.97;1665270;86;25904;-61
2022/07/26 06:57:36;;;;;;;9.33;8.37;;;;;;;22.11;70.09;98098.96;1665357;86;25672;-60
2022/07/26 07:00:06;;;;;;;10.63;8.30;;;;;;;22.03;70.23;98103.19;1665172;86;27481;-63
2022/07/26 07:02:33;;;;;;;9.68;8.25;;;;;;;21.98;71.36;98108.38;1665209;86;25576;-55
2022/07/26 07:05:01;;;;;;;9.93;8.35;;;;;;;21.90;72.27;98124.34;1665087;86;25668;-56
2022/07/26 07:07:27;;;;;;;10.82;9.33;;;;;;;21.75;73.37;98121.58;1675485;84;25791;-56
2022/07/26 07:09:54;;;;;;;10.80;8.65;;;;;;;21.58;74.33;98117.64;1689344;84;25701;-56
2022/07/26 07:12:21;;;;;;;11.53;9.13;;;;;;;21.40;76.84;98119.88;1689546;84;27667;-56
2022/07/26 07:14:48;;;;;;;10.38;9.08;;;;;;;21.22;77.25;98116.31;1689448;84;25689;-58
2022/07/26 07:17:20;;;;;;;10.45;8.73;;;;;;;21.08;78.70;98124.88;1689297;84;25699;-59
2022/07/26 07:19:47;;;;;;;12.05;9.53;;;;;;;20.95;78.73;98121.68;1689608;84;26487;-59
2022/07/26 07:22:14;;;;;;;11.12;8.83;;;;;;;20.92;79.41;98129.44;1689487;84;25607;-59
2022/07/26 07:24:41;;;;;;;10.85;9.08;;;;;;;20.87;79.94;98136.17;1689451;84;27194;-58
2022/07/26 07:27:08;;;;;;;11.60;9.28;;;;;;;20.83;80.96;98135.38;1689457;84;25616;-58
2022/07/26 07:29:35;;;;;;;11.73;9.50;;;;;;;20.80;80.80;98138.95;1689676;84;25611;-58
2022/07/26 07:32:01;;;;;;;11.68;9.33;;;;;;;20.76;80.99;98133.98;1689263;84;25833;-58
2022/07/26 07:34:27;;;;;;;13.20;9.38;;;;;;;20.78;81.30;98132.38;1680285;84;25609;-58
2022/07/26 07:36:53;;;;;;;10.55;9.28;;;;;;;20.86;81.08;98144.33;1671813;84;26939;-58
2022/07/26 07:39:20;;;;;;;12.70;9.25;;;;;;;20.93;80.65;98142.97;1683159;85;25990;-59
2022/07/26 07:41:47;;;;;;;11.88;9.65;;;;;;;20.96;81.21;98150.34;1652161;84;25676;-60
2022/07/26 07:44:14;;;;;;;13.85;8.90;;;;;;;20.99;79.99;98158.70;1650411;86;26081;-58
2022/07/26 07:46:41;;;;;;;10.45;8.73;;;;;;;20.96;80.40;98147.55;1651229;86;25705;-58
2022/07/26 07:49:07;;;;;;;11.05;9.20;;;;;;;20.91;81.04;98142.59;1651188;86;27523;-58
2022/07/26 07:51:33;;;;;;;12.70;9.38;;;;;;;20.88;80.97;98137.78;1651145;86;25704;-57
2022/07/26 07:54:00;;;;;;;11.80;8.30;;;;;;;20.90;81.63;98142.37;1651667;86;25647;-58
2022/07/26 07:56:27;;;;;;;10.48;7.90;;;;;;;20.89;81.42;98149.69;1651416;86;25711;-57
2022/07/26 07:58:53;;;;;;;8.85;7.67;;;;;;;20.81;81.04;98154.45;1651325;86;25612;-57
2022/07/26 08:01:20;;;;;;;8.18;7.17;;;;;;;20.77;80.72;98158.64;1651163;86;27489;-64
2022/07/26 08:03:46;;;;;;;10.13;8.45;;;;;;;20.73;80.88;98162.03;1651649;86;25602;-61
2022/07/26 08:06:13;;;;;;;9.03;7.40;;;;;;;20.77;80.71;98164.22;1651580;86;25704;-60
2022/07/26 08:08:39;;;;;;;8.50;7.00;;;;;;;20.89;81.56;98174.76;1651254;86;25884;-64
2022/07/26 08:11:07;;;;;;;7.35;6.62;;;;;;;20.99;81.27;98174.61;1651207;86;25703;-57
2022/07/26 08:13:33;;;;;;;7.10;6.40;;;;;;;21.07;80.64;98183.16;1651502;86;28126;-58
2022/07/26 08:15:59;;;;;;;7.58;6.35;;;;;;;21.15;80.74;98179.78;1651193;86;26052;-69
2022/07/26 08:18:26;;;;;;;6.78;6.08;;;;;;;21.25;80.48;98179.59;1651198;86;25507;-68
2022/07/26 08:20:54;;;;;;;5.97;5.33;;;;;;;21.30;79.88;98170.23;1651359;86;25914;-57
2022/07/26 08:23:22;;;;;;;6.78;5.62;;;;;;;21.28;79.75;98167.66;1651224;86;25585;-68
2022/07/26 08:25:49;;;;;;;7.10;6.17;;;;;;;21.26;79.40;98157.50;1651329;86;28155;-58
2022/07/26 08:28:15;;;;;;;6.95;5.97;;;;;;;21.18;78.46;98164.47;1651203;86;25741;-58
2022/07/26 08:30:42;;;;;;;7.08;5.60;;;;;;;21.26;78.96;98159.70;1651499;86;25594;-58
2022/07/26 08:33:08;;;;;;;6.65;5.95;;;;;;;21.32;78.26;98162.88;1651230;86;25807;-57
2022/07/26 08:35:35;;;;;;;6.15;5.55;;;;;;;21.36;78.37;98169.23;1651168;86;25508;-59
2022/07/26 08:38:01;;;;;;;6.87;5.92;;;;;;;21.40;77.95;98162.27;1651161;86;27499;-56
2022/07/26 08:40:28;;;;;;;6.33;5.62;;;;;;;21.38;77.83;98166.05;1651067;86;25764;-57
2022/07/26 08:42:56;;;;;;;7.03;5.75;;;;;;;21.42;77.62;98171.04;1648567;85;25668;-57
2022/07/26 08:45:26;;;;;;;10.72;6.00;;;;;;;21.34;80.15;98172.23;1650913;86;26157;-57
2022/07/26 08:47:53;;;;;;;6.90;5.58;;;;;;;21.35;78.51;98184.95;1651624;86;26024;-58
2022/07/26 08:50:20;;;;;;;6.87;4.97;;;;;;;21.37;77.92;98195.92;1651287;86;27673;-58
2022/07/26 08:52:46;;;;;;;6.03;5.42;;;;;;;21.38;77.75;98217.60;1651314;86;27184;-57
2022/07/26 08:55:19;;;;;;;6.50;5.90;;;;;;;21.30;77.13;98221.02;1651240;86;25604;-56
2022/07/26 08:57:45;;;;;;;6.60;5.83;;;;;;;21.19;77.19;98225.95;1632301;86;25802;-56
2022/07/26 09:00:31;;;;;;;6.15;5.55;;;;;;;21.23;77.72;98225.97;1651324;86;25454;-56
2022/07/26 09:03:00;;;;;;;7.30;5.75;;;;;;;21.26;77.83;98239.70;1651295;86;27440;-56
2022/07/26 09:05:30;;;;;;;6.53;5.92;;;;;;;21.37;77.62;98251.66;1651548;86;25843;-55
2022/07/26 09:07:58;;;;;;;6.37;5.45;;;;;;;21.49;77.46;98257.44;1651315;86;25618;-58
2022/07/26 09:10:25;;;;;;;6.92;5.08;;;;;;;21.52;77.62;98255.83;1651736;86;26403;-66
2022/07/26 09:12:57;;;;;;;6.20;5.17;;;;;;;21.55;76.94;98262.81;1651778;86;25447;-70
2022/07/26 09:15:26;;;;;;;6.33;5.10;;;;;;;21.52;76.66;98262.22;1651531;86;27395;-53
2022/07/26 09:17:56;;;;;;;6.42;4.95;;;;;;;21.51;76.59;98270.39;1651689;86;25685;-54
2022/07/26 09:20:29;;;;;;;7.23;5.20;;;;;;;21.50;76.29;98271.56;1631284;86;25738;-54
2022/07/26 09:23:06;;;;;;;6.62;4.78;;;;;;;21.53;76.40;98273.55;1649438;86;26357;-59
2022/07/26 09:25:37;;;;;;;7.35;5.05;;;;;;;21.47;76.07;98266.78;1668282;84;25597;-62
2022/07/26 09:28:06;;;;;;;;;;;;;;;21.42;76.38;98269.98;1685371;85;28254;-66
2022/07/26 09:30:33;;;;;;;6.45;4.80;;;;;;;21.42;76.52;98272.16;1684070;85;25763;-56
2022/07/26 09:33:06;;;;;;;6.12;5.05;;;;;;;21.29;76.33;98263.40;1684657;85;25466;-61
2022/07/26 09:35:39;;;;;;;7.22;4.80;;;;;;;21.27;76.53;98273.36;1684605;85;25734;-59
2022/07/26 09:38:14;;;;;;;6.10;4.85;;;;;;;21.27;76.63;98269.17;1682295;83;25662;-53
2022/07/26 09:40:41;;;;;;;5.80;4.50;;;;;;;21.28;76.97;98268.78;1683271;85;28120;-62
2022/07/26 09:43:08;;;;;;;5.28;4.08;;;;;;;21.40;76.77;98273.17;1684754;85;25708;-59
2022/07/26 09:45:36;;;;;;;4.78;4.25;;;;;;;21.58;76.32;98283.52;1684629;84;25596;-64
2022/07/26 09:48:04;;;;;;;5.47;4.28;;;;;;;21.62;76.69;98282.91;1684464;85;25805;-66
2022/07/26 09:50:33;;;;;;;4.35;3.42;;;;;;;21.75;76.05;98284.72;1684678;85;25490;-63
2022/07/26 09:53:06;;;;;;;5.00;4.20;;;;;;;21.77;75.51;98287.94;1684784;85;27398;-67
2022/07/26 09:55:45;;;;;;;5.40;4.10;;;;;;;21.73;75.98;98294.69;1684681;85;25494;-66
2022/07/26 09:58:15;;;;;;;5.33;3.45;;;;;;;21.53;75.44;98293.07;1684721;85;25672;-52
2022/07/26 10:00:43;;;;;;;4.72;4.00;;;;;;;21.41;76.05;98293.45;1685009;84;25760;-52
2022/07/26 10:03:10;;;;;;;4.70;3.67;;;;;;;21.38;76.64;98299.23;1684596;85;25408;-53
2022/07/26 10:05:37;;;;;;;6.60;3.87;;;;;;;21.33;76.57;98298.83;1684146;84;27423;-52
2022/07/26 10:08:06;;;;;;;4.37;3.60;;;;;;;21.26;77.10;98307.97;1684404;84;25431;-53
2022/07/26 10:11:05;;;;;;;4.75;3.52;;;;;;;21.14;78.04;98309.14;1684789;85;25455;-53
2022/07/26 10:13:32;;;;;;;4.58;3.58;;;;;;;21.05;77.26;98307.55;1684440;85;25750;-52
2022/07/26 10:15:59;;;;;;;4.28;3.35;;;;;;;20.89;76.86;98313.41;1684533;85;25414;-55
2022/07/26 10:18:41;;;;;;;5.08;3.58;;;;;;;20.78;77.27;98316.16;1684378;85;27552;-52
2022/07/26 10:21:28;;;;;;;4.90;3.85;;;;;;;20.63;77.07;98320.06;1684537;85;25858;-52
2022/07/26 10:24:01;;;;;;;4.53;3.70;;;;;;;20.57;77.58;98316.86;1684541;85;25516;-51
2022/07/26 10:26:37;;;;;;;5.15;3.85;;;;;;;20.43;78.63;98321.75;1684471;85;25743;-52
2022/07/26 10:29:24;;;;;;;5.92;3.70;;;;;;;20.32;78.80;98324.47;1684610;85;25648;-52
2022/07/26 10:32:12;;;;;;;5.37;4.50;;;;;;;20.25;78.99;98325.82;1684664;85;28422;-54
2022/07/26 10:34:40;;;;;;;4.87;4.37;;;;;;;20.12;78.99;98328.14;1684573;85;25650;-50
2022/07/26 10:37:10;;;;;;;5.17;4.17;;;;;;;20.04;79.11;98330.84;1684530;84;25691;-52
2022/07/26 10:39:39;;;;;;;4.97;4.03;;;;;;;19.97;79.48;98332.16;1684585;85;25736;-53
2022/07/26 10:42:09;;;;;;;4.90;3.70;;;;;;;19.88;80.55;98338.06;1684462;85;25688;-53
2022/07/26 10:44:41;;;;;;;5.92;3.92;;;;;;;19.86;80.21;98337.63;1684787;85;27546;-55
2022/07/26 10:47:14;;;;;;;6.60;3.65;;;;;;;19.91;80.55;98343.43;1684598;85;25725;-55
2022/07/26 10:49:56;;;;;;;4.83;3.60;;;;;;;19.88;80.26;98344.20;1684350;85;25616;-57
2022/07/26 10:52:30;;;;;;;4.55;3.80;;;;;;;19.89;79.96;98347.20;1684590;85;25741;-55
2022/07/26 10:55:02;;;;;;;6.08;4.03;;;;;;;19.84;79.96;98349.75;1684719;85;25715;-56
2022/07/26 10:57:33;;;;;;;6.12;3.77;;;;;;;19.88;81.02;98344.20;1684421;85;27655;-56
2022/07/26 11:00:01;;;;;;;5.37;3.85;;;;;;;19.97;80.39;98341.11;1684537;84;25942;-56
2022/07/26 11:02:31;;;;;;;6.28;3.77;;;;;;;20.05;80.40;98335.24;1684829;85;25521;-61
2022/07/26 11:05:13;;;;;;;6.78;3.80;;;;;;;19.99;80.70;98340.12;1684789;85;25911;-60
2022/07/26 11:08:09;;;;;;;4.87;3.85;;;;;;;20.03;80.50;98345.14;1684752;85;25688;-55
2022/07/26 11:10:41;;;;;;;5.97;4.10;;;;;;;20.01;80.01;98344.12;1684493;85;27716;-53
2022/07/26 11:13:17;;;;;;;5.62;4.30;;;;;;;19.96;79.92;98344.48;1682699;85;25676;-57
2022/07/26 11:15:54;;;;;;;5.47;4.20;;;;;;;20.06;80.37;98338.80;1684599;84;25763;-54
2022/07/26 11:18:26;;;;;;;6.40;4.42;;;;;;;19.98;79.68;98337.95;1684105;85;25678;-53
2022/07/26 11:20:56;;;;;;;4.42;3.98;;;;;;;19.91;80.37;98333.12;1684314;85;25416;-57
2022/07/26 11:23:33;;;;;;;6.00;3.97;;;;;;;20.01;80.49;98332.20;1684880;85;26850;-53
2022/07/26 11:26:13;;;;;;;8.20;4.55;;;;;;;19.98;80.21;98327.41;1684295;85;25604;-52
2022/07/26 11:28:55;;;;;;;;;;;;;;;20.00;80.80;98334.17;1687198;84;25712;-53
2022/07/26 11:31:29;;;;;;;5.67;4.47;;;;;;;20.01;80.21;98326.05;1684174;85;26908;-53
2022/07/26 11:33:56;;;;;;;5.95;4.53;;;;;;;20.03;81.00;98327.86;1683744;85;25589;-51
2022/07/26 11:36:41;;;;;;;6.50;4.40;;;;;;;20.14;80.47;98325.75;1684616;84;27390;-54
2022/07/26 11:39:15;;;;;;;6.17;4.58;;;;;;;20.18;80.11;98325.98;1684272;85;27203;-53
2022/07/26 11:41:42;;;;;;;5.33;4.53;;;;;;;20.36;80.61;98325.31;1683744;85;25475;-54